createdAt,value
2023-03-11T00:00:48.862Z,99765.38
2023-03-11T00:03:52.907Z,99773.13
2023-03-11T00:06:57.428Z,99786.00
2023-03-11T00:10:01.634Z,99796.28
2023-03-11T00:13:08.480Z,99805.00
2023-03-11T00:16:12.659Z,99806.81
2023-03-11T00:19:16.939Z,99812.88
2023-03-11T00:22:21.127Z,99818.06
2023-03-11T00:25:29.653Z,99823.28
2023-03-11T00:28:34.588Z,99816.50
2023-03-11T00:31:38.944Z,99817.38
2023-03-11T00:34:43.619Z,99832.94
2023-03-11T00:37:48.994Z,99838.13
2023-03-11T00:40:53.288Z,99850.97
2023-03-11T00:43:57.567Z,99841.53
2023-03-11T00:47:02.107Z,99841.53
2023-03-11T00:50:08.302Z,99852.91
2023-03-11T00:53:13.029Z,99857.22
2023-03-11T00:56:17.176Z,99860.63
2023-03-11T00:59:22.257Z,99862.25
2023-03-11T01:02:26.892Z,99866.47
2023-03-11T01:05:33.640Z,99876.72
2023-03-11T01:08:38.388Z,99877.66
2023-03-11T01:11:43.190Z,99891.47
2023-03-11T01:14:47.377Z,99899.25
2023-03-11T01:17:51.373Z,99889.25
2023-03-11T01:20:55.992Z,99890.88
2023-03-11T01:24:00.450Z,99896.09
2023-03-11T01:27:04.843Z,99897.00
2023-03-11T01:30:13.468Z,99890.13
2023-03-11T01:33:19.411Z,99899.63
2023-03-11T01:36:23.999Z,99907.41
2023-03-11T01:39:28.207Z,99902.34
2023-03-11T01:42:32.488Z,99913.56
2023-03-11T01:45:50.093Z,99918.84
2023-03-11T01:48:56.803Z,99929.16
2023-03-11T01:52:07.853Z,99926.72
2023-03-11T01:55:15.138Z,99922.53
2023-03-11T01:58:26.988Z,99932.84
2023-03-11T02:01:31.927Z,99935.41
2023-03-11T02:04:37.977Z,99947.44
2023-03-11T02:07:42.448Z,99952.66
2023-03-11T02:10:48.405Z,99963.94
2023-03-11T02:13:58.492Z,99956.31
2023-03-11T02:17:03.211Z,99966.72
2023-03-11T02:20:31.845Z,99973.53
2023-03-11T02:24:16.665Z,99973.59
2023-03-11T02:27:22.526Z,99972.69
2023-03-11T02:30:28.395Z,99988.09
2023-03-11T02:33:36.627Z,99987.28
2023-03-11T02:36:43.206Z,99993.34
2023-03-11T02:39:52.414Z,100003.72
2023-03-11T02:43:05.977Z,100000.22
2023-03-11T02:46:12.499Z,99998.53
2023-03-11T02:49:18.022Z,100005.44
2023-03-11T02:52:25.375Z,100006.38
2023-03-11T02:55:30.135Z,100003.13
2023-03-11T02:58:34.420Z,100015.97
2023-03-11T03:01:38.995Z,100013.50
2023-03-11T03:04:43.329Z,100027.34
2023-03-11T03:07:48.880Z,100039.28
2023-03-11T03:10:53.627Z,100035.78
2023-03-11T03:13:57.924Z,100041.72
2023-03-11T03:17:02.551Z,100041.63
2023-03-11T03:20:11.646Z,100042.50
2023-03-11T03:23:16.256Z,100045.03
2023-03-11T03:26:20.942Z,100050.31
2023-03-11T03:29:25.192Z,100050.31
2023-03-11T03:32:29.472Z,100054.72
2023-03-11T03:35:34.476Z,100065.22
2023-03-11T03:38:39.064Z,100066.97
2023-03-11T03:41:43.584Z,100067.03
2023-03-11T03:44:48.147Z,100066.22
2023-03-11T03:47:52.274Z,100073.25
2023-03-11T03:50:57.353Z,100082.75
2023-03-11T03:54:01.530Z,100081.78
2023-03-11T03:57:06.224Z,100084.34
2023-03-11T04:00:13.260Z,100086.13
2023-03-11T04:03:17.868Z,100091.34
2023-03-11T04:06:27.708Z,100095.72
2023-03-11T04:09:33.677Z,100094.16
2023-03-11T04:12:38.217Z,100093.41
2023-03-11T04:15:42.261Z,100098.53
2023-03-11T04:18:47.067Z,100098.66
2023-03-11T04:21:51.978Z,100093.50
2023-03-11T04:24:56.538Z,100105.59
2023-03-11T04:28:01.216Z,100107.25
2023-03-11T04:31:05.867Z,100113.28
2023-03-11T04:34:10.376Z,100118.44
2023-03-11T04:37:14.520Z,100114.97
2023-03-11T04:40:18.981Z,100120.97
2023-03-11T04:43:23.257Z,100129.44
2023-03-11T04:46:27.738Z,100146.63
2023-03-11T04:49:31.947Z,100144.78
2023-03-11T04:52:36.345Z,100158.56
2023-03-11T04:55:41.467Z,100163.72
2023-03-11T04:58:45.990Z,100161.22
2023-03-11T05:01:50.591Z,100168.88
2023-03-11T05:04:54.925Z,100166.31
2023-03-11T05:07:59.191Z,100174.06
2023-03-11T05:11:04.210Z,100181.81
2023-03-11T05:14:08.604Z,100187.88
2023-03-11T05:17:14.820Z,100184.50
2023-03-11T05:20:19.468Z,100188.91
2023-03-11T05:23:23.705Z,100185.47
2023-03-11T05:26:27.856Z,100184.66
2023-03-11T05:29:32.531Z,100190.59
2023-03-11T05:32:36.866Z,100199.19
2023-03-11T05:35:42.894Z,100203.47
2023-03-11T05:38:47.249Z,100213.63
2023-03-11T05:41:51.365Z,100225.63
2023-03-11T05:44:55.734Z,100227.38
2023-03-11T05:48:00.260Z,100232.47
2023-03-11T05:51:11.688Z,100229.09
2023-03-11T05:54:17.118Z,100237.72
2023-03-11T05:57:21.713Z,100238.56
2023-03-11T06:00:29.049Z,100232.63
2023-03-11T06:03:33.293Z,100241.25
2023-03-11T06:06:41.556Z,100245.59
2023-03-11T06:09:45.580Z,100241.34
2023-03-11T06:12:50.153Z,100243.16
2023-03-11T06:15:54.835Z,100248.34
2023-03-11T06:19:02.489Z,100261.09
2023-03-11T06:22:07.100Z,100261.22
2023-03-11T06:25:12.884Z,100265.50
2023-03-11T06:28:17.680Z,100264.59
2023-03-11T06:31:26.912Z,100273.25
2023-03-11T06:34:30.965Z,100266.38
2023-03-11T06:37:37.435Z,100270.63
2023-03-11T06:40:41.928Z,100276.59
2023-03-11T06:43:46.666Z,100278.31
2023-03-11T06:46:51.338Z,100270.63
2023-03-11T06:49:55.517Z,100285.25
2023-03-11T06:52:59.870Z,100286.88
2023-03-11T06:56:09.263Z,100297.22
2023-03-11T06:59:15.443Z,100284.41
2023-03-11T07:02:19.783Z,100292.97
2023-03-11T07:05:24.370Z,100298.94
2023-03-11T07:08:29.183Z,100307.50
2023-03-11T07:11:33.975Z,100311.78
2023-03-11T07:14:38.097Z,100313.50
2023-03-11T07:17:42.266Z,100319.41
2023-03-11T07:20:46.515Z,100327.97
2023-03-11T07:24:00.123Z,100332.03
2023-03-11T07:27:04.653Z,100337.06
2023-03-11T07:30:10.263Z,100342.06
2023-03-11T07:33:15.916Z,100345.44
2023-03-11T07:36:24.404Z,100354.00
2023-03-11T07:39:29.067Z,100359.91
2023-03-11T07:42:34.840Z,100354.69
2023-03-11T07:45:39.323Z,100362.47
2023-03-11T07:48:43.755Z,100368.41
2023-03-11T07:51:48.321Z,100380.34
2023-03-11T07:54:52.655Z,100382.94
2023-03-11T07:57:57.010Z,100386.28
2023-03-11T08:01:16.290Z,100388.84
2023-03-11T08:04:20.682Z,100393.06
2023-03-11T08:07:25.136Z,100391.34
2023-03-11T08:10:29.749Z,100406.72
2023-03-11T08:13:35.069Z,100411.88
2023-03-11T08:16:40.628Z,100417.88
2023-03-11T08:19:45.218Z,100417.81
2023-03-11T08:22:58.087Z,100413.47
2023-03-11T08:26:12.344Z,100421.09
2023-03-11T08:29:16.544Z,100412.56
2023-03-11T08:32:20.947Z,100416.75
2023-03-11T08:35:26.904Z,100431.25
2023-03-11T08:38:31.643Z,100426.88
2023-03-11T08:41:35.897Z,100423.47
2023-03-11T08:44:40.139Z,100431.16
2023-03-11T08:47:44.588Z,100429.50
2023-03-11T08:50:54.285Z,100442.38
2023-03-11T08:54:00.569Z,100442.34
2023-03-11T08:57:05.200Z,100442.25
2023-03-11T09:00:13.233Z,100441.34
2023-03-11T09:03:18.023Z,100447.22
2023-03-11T09:06:22.844Z,100447.16
2023-03-11T09:09:27.323Z,100445.38
2023-03-11T09:12:31.681Z,100444.56
2023-03-11T09:15:36.524Z,100442.78
2023-03-11T09:18:41.732Z,100452.91
2023-03-11T09:21:47.344Z,100453.75
2023-03-11T09:24:53.110Z,100452.84
2023-03-11T09:27:57.667Z,100456.19
2023-03-11T09:31:02.298Z,100451.88
2023-03-11T09:34:07.873Z,100457.84
2023-03-11T09:37:13.247Z,100456.81
2023-03-11T09:40:22.110Z,100465.25
2023-03-11T09:44:07.894Z,100463.34
2023-03-11T09:47:29.492Z,100463.19
2023-03-11T09:50:44.379Z,100463.81
2023-03-11T09:54:05.158Z,100474.34
2023-03-11T09:57:39.707Z,100461.06
2023-03-11T10:00:45.479Z,100462.75
2023-03-11T10:03:56.827Z,100464.16
2023-03-11T10:07:09.669Z,100466.63
2023-03-11T10:10:17.763Z,100457.97
2023-03-11T10:13:52.482Z,100465.59
2023-03-11T10:17:48.375Z,100458.66
2023-03-11T10:21:03.376Z,100454.91
2023-03-11T10:24:20.125Z,100454.41
2023-03-11T10:28:06.104Z,100453.25
2023-03-11T10:31:25.012Z,100458.19
2023-03-11T10:35:29.741Z,100456.94
2023-03-11T10:38:42.647Z,100457.06
2023-03-11T10:41:53.709Z,100440.06
2023-03-11T10:45:01.127Z,100436.75
2023-03-11T10:48:15.657Z,100425.91
2023-03-11T10:51:29.051Z,100422.63
2023-03-11T10:54:50.070Z,100439.72
2023-03-11T10:58:14.010Z,100434.47
2023-03-11T11:01:22.087Z,100421.28
2023-03-11T11:04:47.718Z,100410.66
2023-03-11T11:08:22.687Z,100402.81
2023-03-11T11:11:31.380Z,100392.53
2023-03-11T11:14:48.466Z,100392.00
2023-03-11T11:17:58.025Z,100384.28
2023-03-11T11:24:45.652Z,100391.47
2023-03-11T11:28:01.035Z,100386.06
2023-03-11T11:31:22.015Z,100384.94
2023-03-11T11:34:33.840Z,100375.16
2023-03-11T11:37:48.737Z,100377.59
2023-03-11T11:40:56.738Z,100381.81
2023-03-11T11:44:07.066Z,100371.81
2023-03-11T11:47:22.595Z,100383.19
2023-03-11T11:50:34.510Z,100380.66
2023-03-11T11:53:47.206Z,100367.78
2023-03-11T11:56:51.394Z,100372.00
2023-03-11T11:59:57.488Z,100369.19
2023-03-11T12:03:57.691Z,100363.16
2023-03-11T12:07:49.192Z,100370.56
2023-03-11T12:11:42.110Z,100363.41
2023-03-11T12:15:07.490Z,100358.31
2023-03-11T12:18:42.790Z,100365.16
2023-03-11T12:22:20.220Z,100353.81
2023-03-11T12:25:39.938Z,100366.88
2023-03-11T12:29:26.320Z,100355.16
2023-03-11T12:32:56.894Z,100362.78
2023-03-11T12:36:03.549Z,100353.16
2023-03-11T12:39:29.167Z,100361.53
2023-03-11T12:42:41.069Z,100359.31
2023-03-11T12:45:55.702Z,100361.38
2023-03-11T12:49:15.337Z,100355.94
2023-03-11T12:52:24.854Z,100355.78
2023-03-11T12:55:36.294Z,100355.25
2023-03-11T12:59:07.615Z,100357.34
2023-03-11T13:02:51.689Z,100355.34
2023-03-11T13:06:15.147Z,100357.03
2023-03-11T13:09:19.981Z,100354.47
2023-03-11T13:12:47.463Z,100355.16
2023-03-11T13:15:56.907Z,100365.06
2023-03-11T13:19:27.854Z,100367.97
2023-03-11T13:23:01.376Z,100370.56
2023-03-11T13:26:40.659Z,100355.25
2023-03-11T13:30:06.307Z,100353.38
2023-03-11T13:33:19.057Z,100369.22
2023-03-11T13:36:57.368Z,100363.09
2023-03-11T13:40:23.057Z,100368.53
2023-03-11T13:43:28.388Z,100368.09
2023-03-11T13:46:39.908Z,100360.59
2023-03-11T13:50:10.264Z,100357.66
2023-03-11T13:53:31.818Z,100369.88
2023-03-11T13:56:46.821Z,100360.84
2023-03-11T13:59:54.319Z,100374.69
2023-03-11T14:03:21.300Z,100378.59
2023-03-11T14:06:31.314Z,100375.94
2023-03-11T14:09:35.869Z,100383.03
2023-03-11T14:12:40.859Z,100385.94
2023-03-11T14:16:35.261Z,100392.31
2023-03-11T14:19:40.214Z,100384.84
2023-03-11T14:22:55.077Z,100375.03
2023-03-11T14:26:10.067Z,100369.81
2023-03-11T14:29:21.434Z,100382.59
2023-03-11T14:32:30.416Z,100386.31
2023-03-11T14:35:39.896Z,100377.25
2023-03-11T14:38:49.896Z,100376.09
2023-03-11T14:42:23.792Z,100378.81
2023-03-11T14:45:40.024Z,100394.44
2023-03-11T14:48:47.323Z,100403.41
2023-03-11T14:52:10.546Z,100408.53
2023-03-11T14:55:38.252Z,100407.06
2023-03-11T14:59:07.978Z,100404.19
2023-03-11T15:03:12.643Z,100420.00
2023-03-11T15:06:29.914Z,100420.00
2023-03-11T15:09:43.095Z,100421.78
2023-03-11T15:12:51.509Z,100430.22
2023-03-11T15:16:36.125Z,100436.72
2023-03-11T15:20:08.902Z,100442.22
2023-03-11T15:23:27.629Z,100440.38
2023-03-11T15:26:49.346Z,100448.16
2023-03-11T15:30:07.504Z,100455.25
2023-03-11T15:33:39.044Z,100448.16
2023-03-11T15:36:57.496Z,100447.72
2023-03-11T15:40:38.632Z,100458.97
2023-03-11T15:44:13.776Z,100443.59
2023-03-11T15:47:23.817Z,100437.56
2023-03-11T15:50:46.771Z,100437.56
2023-03-11T15:53:56.428Z,100432.28
2023-03-11T15:57:08.705Z,100431.75
2023-03-11T16:00:24.077Z,100434.31
2023-03-11T16:03:32.913Z,100442.53
2023-03-11T16:06:37.236Z,100443.47
2023-03-11T16:09:42.285Z,100441.25
2023-03-11T16:12:47.058Z,100440.50
2023-03-11T16:15:52.398Z,100452.03
2023-03-11T16:18:57.029Z,100447.72
2023-03-11T16:22:02.897Z,100453.00
2023-03-11T16:25:22.731Z,100452.06
2023-03-11T16:28:32.708Z,100449.94
2023-03-11T16:31:39.266Z,100474.13
2023-03-11T16:34:45.512Z,100491.25
2023-03-11T16:37:50.885Z,100498.41
2023-03-11T16:41:02.044Z,100505.28
2023-03-11T16:44:09.734Z,100511.28
2023-03-11T16:47:18.273Z,100523.34
2023-03-11T16:50:24.460Z,100518.16
2023-03-11T16:53:29.367Z,100522.44
2023-03-11T16:56:41.734Z,100536.13
2023-03-11T16:59:46.525Z,100543.88
2023-03-11T17:02:51.711Z,100553.47
2023-03-11T17:06:03.093Z,100563.56
2023-03-11T17:09:07.313Z,100544.47
2023-03-11T17:12:15.766Z,100557.69
2023-03-11T17:15:20.788Z,100556.69
2023-03-11T17:18:27.035Z,100569.63
2023-03-11T17:22:03.375Z,100567.88
2023-03-11T19:07:04.729Z,100716.59
2023-03-11T19:10:10.208Z,100705.19
2023-03-11T19:13:19.130Z,100703.94
2023-03-11T19:16:26.223Z,100700.72
2023-03-11T19:19:31.588Z,100705.97
2023-03-11T19:22:36.907Z,100709.50
2023-03-11T19:25:44.029Z,100720.72
2023-03-11T19:29:00.856Z,100702.66
2023-03-11T19:32:05.875Z,100714.00
2023-03-11T19:35:14.387Z,100728.69
2023-03-11T19:38:19.283Z,100730.34
2023-03-11T19:41:23.294Z,100736.41
2023-03-11T19:44:27.790Z,100736.44
2023-03-11T19:47:32.247Z,100745.88
2023-03-11T19:50:36.445Z,100751.00
2023-03-11T19:53:41.805Z,100754.41
2023-03-11T19:56:46.663Z,100763.88
2023-03-11T19:59:51.014Z,100760.38
2023-03-11T20:02:56.852Z,100765.53
2023-03-11T20:06:06.523Z,100773.31
2023-03-11T20:09:11.653Z,100776.75
2023-03-11T20:12:16.669Z,100786.19
2023-03-11T20:15:21.611Z,100788.78
2023-03-11T20:18:25.681Z,100785.28
2023-03-11T20:21:30.440Z,100790.44
2023-03-11T20:24:34.794Z,100786.91
2023-03-11T20:27:39.290Z,100789.47
2023-03-11T20:30:43.563Z,100788.63
2023-03-11T20:33:49.913Z,100801.50
2023-03-11T20:36:54.077Z,100800.59
2023-03-11T20:39:58.768Z,100811.91
2023-03-11T20:43:03.620Z,100813.69
2023-03-11T20:46:09.716Z,100810.25
2023-03-11T20:49:14.576Z,100818.91
2023-03-11T20:52:19.715Z,100821.50
2023-03-11T20:55:24.059Z,100818.06
2023-03-11T20:58:28.297Z,100823.25
2023-03-11T21:01:34.105Z,100820.72
2023-03-11T21:04:41.203Z,100823.38
2023-03-11T21:07:48.858Z,100832.94
2023-03-11T21:11:00.863Z,100828.69
2023-03-11T21:14:07.648Z,100825.22
2023-03-11T21:17:12.149Z,100828.66
2023-03-11T21:20:17.272Z,100835.69
2023-03-11T21:23:21.850Z,100821.03
2023-03-11T21:26:26.149Z,100830.50
2023-03-11T21:29:30.882Z,100834.78
2023-03-11T21:32:35.726Z,100839.09
2023-03-11T21:35:40.183Z,100851.16
2023-03-11T21:38:47.287Z,100858.00
2023-03-11T21:41:53.330Z,100853.69
2023-03-11T21:44:58.315Z,100857.06
2023-03-11T21:48:06.683Z,100862.22
2023-03-11T21:51:11.413Z,100859.63
2023-03-11T21:54:15.918Z,100854.50
2023-03-11T21:57:20.572Z,100864.81
2023-03-11T22:00:25.184Z,100856.25
2023-03-11T22:03:30.825Z,100856.28
2023-03-11T22:06:35.469Z,100859.75
2023-03-11T22:09:40.399Z,100860.66
2023-03-11T22:12:45.254Z,100858.16
2023-03-11T22:15:50.588Z,100858.19
2023-03-11T22:18:55.367Z,100847.84
2023-03-11T22:21:59.635Z,100851.34
2023-03-11T22:25:05.564Z,100852.28
2023-03-11T22:28:12.829Z,100851.44
2023-03-11T22:31:18.982Z,100860.91
2023-03-11T22:34:23.895Z,100867.84
2023-03-11T22:37:28.299Z,100867.06
2023-03-11T22:40:35.073Z,100863.63
2023-03-11T22:43:39.876Z,100863.63
2023-03-11T22:46:44.226Z,100870.50
2023-03-11T22:49:48.757Z,100868.03
2023-03-11T22:52:53.209Z,100869.78
2023-03-11T22:55:57.764Z,100866.38
2023-03-11T22:59:02.560Z,100868.06
2023-03-11T23:02:06.901Z,100872.44
2023-03-11T23:05:13.381Z,100868.97
2023-03-11T23:08:18.213Z,100870.69
2023-03-11T23:11:23.411Z,100875.78
2023-03-11T23:14:37.752Z,100866.34
2023-03-11T23:17:46.477Z,100877.59
2023-03-11T23:20:50.623Z,100878.44
2023-03-11T23:23:56.205Z,100879.28
2023-03-11T23:27:00.963Z,100872.44
2023-03-11T23:30:06.640Z,100877.56
2023-03-11T23:33:10.866Z,100881.91
2023-03-11T23:36:21.693Z,100881.03
2023-03-11T23:39:25.808Z,100883.59
2023-03-11T23:42:34.638Z,100892.25
2023-03-11T23:45:39.138Z,100887.06
2023-03-11T23:48:43.334Z,100896.56
2023-03-11T23:51:47.479Z,100886.25
2023-03-11T23:54:52.102Z,100888.84
2023-03-11T23:57:56.493Z,100881.91
